Time;durP1;ratioP1;P1;durP2;ratioP2;P2;SDS_P1;SDS_P2;PMS_P1;PMS_P2;Temp;Humidity;BMP_temperature;BMP_pressure;BME280_temperature;BME280_humidity;BME280_pressure;Samples;Min_cycle;Max_cycle;Signal;HPM_P1;HPM_P2
2022/04/01 16:27:53;;;;;;;6.97;6.37;;;4.00;99.90;;;;;;5073661;28;20502;-65
2022/04/01 16:30:22;;;;;;;8.73;5.87;;;3.90;99.90;;;;;;5046728;28;20188;-63
2022/04/01 16:32:51;;;;;;;6.23;5.30;;;3.90;99.90;;;;;;5048002;28;20184;-63
2022/04/01 16:35:19;;;;;;;7.63;5.33;;;3.90;99.90;;;;;;5059072;28;20226;-63
2022/04/01 16:37:48;;;;;;;6.17;5.27;;;4.00;99.90;;;;;;5051679;28;20221;-63
2022/04/01 16:40:16;;;;;;;7.27;5.60;;;4.10;99.90;;;;;;5034358;28;20280;-63
2022/04/01 16:42:44;;;;;;;5.47;5.07;;;4.20;99.90;;;;;;5055615;28;20194;-63
2022/04/01 16:45:15;;;;;;;5.30;4.90;;;4.20;99.90;;;;;;5057036;28;20227;-63
2022/04/01 16:47:44;;;;;;;4.80;4.40;;;4.20;99.90;;;;;;5045499;28;20242;-63
2022/04/01 16:50:13;;;;;;;6.60;4.67;;;4.20;99.90;;;;;;5055318;28;20290;-63
2022/04/01 16:52:42;;;;;;;4.77;4.47;;;4.30;99.90;;;;;;5061909;28;20197;-63
2022/04/01 16:55:13;;;;;;;4.83;4.43;;;4.30;99.90;;;;;;5055635;28;20279;-63
2022/04/01 16:57:42;;;;;;;5.07;4.53;;;4.20;99.90;;;;;;5043172;28;20737;-63
2022/04/01 17:00:13;;;;;;;5.27;4.77;;;4.10;99.90;;;;;;5056164;28;20232;-63
2022/04/01 17:02:43;;;;;;;4.90;4.50;;;4.10;99.90;;;;;;5055085;28;20208;-63
2022/04/01 17:05:11;;;;;;;6.87;4.83;;;4.10;99.90;;;;;;5059827;28;20222;-63
2022/04/01 17:13:11;;;;;;;7.43;6.17;;;4.10;99.90;;;;;;5063162;28;20202;-63
2022/04/01 17:15:43;;;;;;;6.47;5.87;;;4.00;99.90;;;;;;5055547;28;20667;-63
2022/04/01 17:18:14;;;;;;;4.30;4.00;;;4.00;99.90;;;;;;5057446;28;20681;-63
2022/04/01 17:20:43;;;;;;;5.20;4.80;;;4.00;99.90;;;;;;5056094;28;20239;-63
2022/04/01 17:23:13;;;;;;;5.37;4.70;;;4.00;99.90;;;;;;5064709;28;20195;-63
2022/04/01 17:25:42;;;;;;;4.53;3.90;;;3.90;99.90;;;;;;5053264;28;20192;-63
2022/04/01 17:28:12;;;;;;;9.53;5.30;;;3.90;99.90;;;;;;5057859;28;20685;-63
2022/04/01 17:30:40;;;;;;;6.17;4.73;;;3.90;99.90;;;;;;5054303;28;20669;-63
2022/04/01 17:33:12;;;;;;;9.30;5.70;;;3.80;99.90;;;;;;5062753;28;20192;-63
2022/04/01 17:35:42;;;;;;;6.03;5.43;;;3.90;99.90;;;;;;5056134;28;20258;-63
2022/04/01 17:38:11;;;;;;;5.80;5.37;;;3.80;99.90;;;;;;5050875;28;20221;-63
2022/04/01 17:40:39;;;;;;;5.43;5.03;;;3.80;99.90;;;;;;5041945;28;20276;-62
2022/04/01 17:43:10;;;;;;;7.10;5.00;;;3.80;99.90;;;;;;5033129;28;20231;-62
2022/04/01 17:45:39;;;;;;;5.57;4.97;;;3.80;99.90;;;;;;5039669;28;20211;-63
2022/04/01 17:48:09;;;;;;;8.07;5.20;;;3.80;99.90;;;;;;5045528;28;20221;-63
2022/04/01 17:50:39;;;;;;;6.13;5.20;;;3.80;99.90;;;;;;5047448;28;20288;-63
2022/04/01 17:53:07;;;;;;;5.20;4.70;;;3.80;99.90;;;;;;5029773;28;20259;-63
2022/04/01 17:55:39;;;;;;;5.53;4.90;;;3.70;99.90;;;;;;5045764;28;20303;-65
2022/04/01 17:58:13;;;;;;;8.20;4.90;;;3.60;99.90;;;;;;5047418;28;20200;-63
2022/04/01 18:00:41;;;;;;;4.80;4.40;;;3.70;99.90;;;;;;5024181;28;20205;-63
2022/04/01 18:03:13;;;;;;;4.80;4.27;;;3.70;99.90;;;;;;5030371;28;20293;-62
2022/04/01 18:05:49;;;;;;;5.33;4.13;;;3.80;99.90;;;;;;5033706;28;20201;-68
2022/04/01 18:08:18;;;;;;;6.27;4.20;;;3.80;99.90;;;;;;5021908;28;21834;-63
2022/04/01 18:10:47;;;;;;;4.07;3.77;;;3.80;99.90;;;;;;5024112;28;20730;-63
2022/04/01 18:13:18;;;;;;;4.53;4.13;;;3.70;99.90;;;;;;5039321;28;20220;-63
2022/04/01 18:15:47;;;;;;;4.70;4.30;;;3.60;99.90;;;;;;5045982;28;20225;-63
2022/04/01 18:18:15;;;;;;;4.23;4.00;;;3.50;99.90;;;;;;5041761;28;20181;-63
2022/04/01 18:20:47;;;;;;;4.97;4.50;;;3.40;99.90;;;;;;5045933;28;20204;-62
2022/04/01 18:23:15;;;;;;;5.57;4.77;;;3.30;99.90;;;;;;5044113;28;20203;-63
2022/04/01 18:25:52;;;;;;;8.23;4.80;;;3.20;99.90;;;;;;5036173;28;20848;-63
2022/04/01 18:28:24;;;;;;;6.40;5.10;;;3.20;99.90;;;;;;5046670;28;20205;-63
2022/04/01 18:31:01;;;;;;;6.90;4.50;;;3.10;99.90;;;;;;5026768;28;20216;-63
2022/04/01 18:33:38;;;;;;;10.57;5.53;;;3.20;99.90;;;;;;5037173;28;20196;-63
2022/04/01 18:36:09;;;;;;;11.87;5.27;;;3.20;99.90;;;;;;5044053;28;20406;-63
2022/04/01 18:38:38;;;;;;;6.33;4.80;;;3.20;99.90;;;;;;5041597;28;20713;-63
2022/04/01 18:41:08;;;;;;;4.87;4.57;;;3.20;99.90;;;;;;5034126;28;20189;-63
2022/04/01 18:43:40;;;;;;;5.80;5.20;;;3.20;99.90;;;;;;5039227;28;20644;-63
2022/04/01 18:46:09;;;;;;;7.10;5.27;;;3.20;99.90;;;;;;5044374;28;20209;-63
2022/04/01 18:48:38;;;;;;;6.13;4.87;;;3.10;99.90;;;;;;5043544;28;20231;-62
2022/04/01 18:51:08;;;;;;;6.03;5.20;;;3.10;99.90;;;;;;5040737;28;20200;-63
2022/04/01 18:53:37;;;;;;;7.03;4.93;;;3.10;99.90;;;;;;5040827;28;20192;-63
2022/04/01 18:56:09;;;;;;;9.83;5.70;;;3.10;99.90;;;;;;5045436;28;20200;-63
2022/04/01 18:58:38;;;;;;;6.17;5.60;;;3.00;99.90;;;;;;5047921;28;20204;-63
2022/04/01 19:01:06;;;;;;;10.67;8.03;;;3.10;99.90;;;;;;5050038;28;20193;-63
2022/04/01 19:03:39;;;;;;;10.37;7.60;;;3.10;99.90;;;;;;5039560;28;20578;-63
2022/04/01 19:06:17;;;;;;;11.73;7.17;;;3.00;99.90;;;;;;5044126;28;20211;-63
2022/04/01 19:08:52;;;;;;;11.00;8.00;;;3.10;99.90;;;;;;5033592;28;20266;-63
2022/04/01 19:11:32;;;;;;;9.27;7.27;;;3.10;99.90;;;;;;5039086;28;20621;-62
2022/04/01 19:14:04;;;;;;;7.27;6.40;;;3.10;99.90;;;;;;5038412;28;20644;-62
2022/04/01 19:16:41;;;;;;;8.13;5.50;;;3.10;99.90;;;;;;5038124;28;20200;-62
2022/04/01 19:19:14;;;;;;;8.30;6.37;;;3.10;99.90;;;;;;5041613;28;20196;-63
2022/04/01 19:21:46;;;;;;;6.03;5.43;;;3.10;99.90;;;;;;5043757;28;20205;-62
2022/04/01 19:24:16;;;;;;;6.60;5.90;;;3.10;99.90;;;;;;5049093;28;20234;-63
2022/04/01 19:26:49;;;;;;;6.93;6.30;;;3.10;99.90;;;;;;5044021;28;20228;-62
2022/04/01 19:29:17;;;;;;;7.60;5.13;;;3.10;99.90;;;;;;5046633;28;20370;-62
2022/04/01 19:31:47;;;;;;;8.53;5.80;;;3.20;99.90;;;;;;5044205;28;20197;-63
2022/04/01 19:34:15;;;;;;;6.57;5.90;;;3.20;99.90;;;;;;5047187;28;20777;-63
2022/04/01 19:36:45;;;;;;;6.80;6.10;;;3.20;99.90;;;;;;5040289;28;20279;-63
2022/04/01 19:39:13;;;;;;;8.27;6.03;;;3.20;99.90;;;;;;5020597;28;20221;-63
2022/04/01 19:41:41;;;;;;;6.50;5.73;;;3.20;99.90;;;;;;5038693;28;20200;-63
2022/04/01 19:44:10;;;;;;;5.73;5.03;;;3.20;99.90;;;;;;5006490;28;20200;-63
2022/04/01 19:46:39;;;;;;;5.80;5.20;;;3.20;99.90;;;;;;5042638;28;20287;-63
2022/04/01 19:49:07;;;;;;;7.33;5.93;;;3.30;99.90;;;;;;5040663;28;20760;-63
2022/04/01 19:51:37;;;;;;;8.60;5.80;;;3.30;99.90;;;;;;5043057;28;20196;-63
2022/04/01 19:54:06;;;;;;;9.53;5.50;;;3.30;99.90;;;;;;5022634;28;20224;-63
2022/04/01 19:56:35;;;;;;;8.57;5.03;;;3.30;99.90;;;;;;5041541;28;20203;-63
2022/04/01 19:59:03;;;;;;;5.83;4.57;;;3.30;99.90;;;;;;5040511;28;20303;-63
2022/04/01 20:01:32;;;;;;;6.20;4.90;;;3.30;99.90;;;;;;5045758;28;20276;-63
2022/04/01 20:04:03;;;;;;;6.63;4.73;;;3.30;99.90;;;;;;5036819;28;20196;-62
2022/04/01 20:06:31;;;;;;;4.83;4.13;;;3.30;99.90;;;;;;5040150;28;20282;-63
2022/04/01 20:08:59;;;;;;;4.07;3.77;;;3.30;99.90;;;;;;5041579;28;20221;-62
2022/04/01 20:11:29;;;;;;;3.90;3.60;;;3.30;99.90;;;;;;5026596;28;20231;-63
2022/04/01 20:13:58;;;;;;;3.60;3.40;;;3.40;99.90;;;;;;5041306;28;20279;-63
2022/04/01 20:16:27;;;;;;;4.70;3.33;;;3.40;99.90;;;;;;5025157;28;20224;-62
2022/04/01 20:18:56;;;;;;;5.33;3.63;;;3.40;99.90;;;;;;5042178;28;20197;-63
2022/04/01 20:21:25;;;;;;;3.40;3.20;;;3.40;99.90;;;;;;5042980;28;20610;-63
2022/04/01 20:23:54;;;;;;;3.60;3.30;;;3.40;99.90;;;;;;5043101;28;20374;-63
2022/04/01 20:26:22;;;;;;;4.80;3.60;;;3.40;99.90;;;;;;5036029;28;20233;-62
2022/04/01 20:28:54;;;;;;;4.30;3.33;;;3.40;99.90;;;;;;5021673;28;20311;-63
2022/04/01 20:31:23;;;;;;;3.03;2.83;;;3.40;99.90;;;;;;5038243;28;20662;-62
2022/04/01 20:33:52;;;;;;;4.10;3.00;;;3.50;99.90;;;;;;5041890;28;20204;-63
2022/04/01 20:36:21;;;;;;;5.77;3.30;;;3.40;99.90;;;;;;5043647;28;20706;-63
2022/04/01 20:38:52;;;;;;;3.23;2.97;;;3.40;99.90;;;;;;5040174;28;20217;-62
2022/04/01 20:41:20;;;;;;;3.53;3.00;;;3.40;99.90;;;;;;5041237;28;20616;-63
2022/04/01 20:43:48;;;;;;;4.90;3.50;;;3.40;99.90;;;;;;5040126;28;20244;-63
2022/04/01 20:46:18;;;;;;;3.50;3.30;;;3.50;99.90;;;;;;5037539;28;20268;-63
2022/04/01 20:48:46;;;;;;;3.30;3.10;;;3.50;99.90;;;;;;5041569;28;20204;-62
2022/04/01 20:51:15;;;;;;;5.03;3.17;;;3.50;99.90;;;;;;5042612;28;20292;-62
2022/04/01 20:53:44;;;;;;;5.70;3.00;;;3.50;99.90;;;;;;5037534;28;20205;-62
2022/04/01 20:56:12;;;;;;;5.40;3.30;;;3.50;99.90;;;;;;5037963;28;20288;-63
2022/04/01 20:58:40;;;;;;;3.60;3.30;;;3.50;99.90;;;;;;5042021;28;20189;-63
2022/04/01 21:01:09;;;;;;;2.80;2.70;;;3.50;99.90;;;;;;5029753;28;20200;-62
2022/04/01 21:03:38;;;;;;;8.53;3.13;;;3.50;99.90;;;;;;5039781;28;20316;-63
2022/04/01 21:06:07;;;;;;;4.53;2.90;;;3.50;99.90;;;;;;5041541;28;20371;-63
2022/04/01 21:08:35;;;;;;;6.47;3.20;;;3.50;99.90;;;;;;5041449;28;20280;-62
2022/04/01 21:11:06;;;;;;;3.13;2.83;;;3.50;99.90;;;;;;5044330;28;20212;-62
2022/04/01 21:13:34;;;;;;;3.97;3.00;;;3.50;99.90;;;;;;5048388;28;20387;-63
2022/04/01 21:16:03;;;;;;;3.73;2.70;;;3.60;99.90;;;;;;5047734;28;20219;-62
2022/04/01 21:18:52;;;;;;;4.83;2.93;;;3.60;99.90;;;;;;5048214;28;20193;-62
2022/04/01 21:21:21;;;;;;;3.83;2.67;;;3.60;99.90;;;;;;5049298;28;20289;-63
2022/04/01 21:23:50;;;;;;;3.23;2.90;;;3.60;99.90;;;;;;5034810;28;20276;-62
2022/04/01 21:29:04;;;;;;;3.80;2.70;;;3.60;99.90;;;;;;5044053;28;20777;-62
2022/04/01 21:31:32;;;;;;;2.93;2.73;;;3.60;99.90;;;;;;5044441;28;20193;-63
2022/04/01 21:34:02;;;;;;;5.27;3.10;;;3.60;99.90;;;;;;5048083;28;20197;-62
2022/04/01 21:36:30;;;;;;;4.87;2.73;;;3.50;99.90;;;;;;5027304;28;20200;-62
2022/04/01 21:39:03;;;;;;;6.47;2.70;;;3.60;99.90;;;;;;5032851;28;20204;-62
2022/04/01 21:41:32;;;;;;;2.97;2.53;;;3.60;99.90;;;;;;5047760;28;20216;-62
2022/04/01 21:44:01;;;;;;;3.23;2.97;;;3.60;99.90;;;;;;5048088;28;20716;-62
2022/04/01 21:46:29;;;;;;;2.87;2.77;;;3.60;99.90;;;;;;5047644;28;20203;-63
2022/04/01 21:48:57;;;;;;;5.70;3.10;;;3.60;99.90;;;;;;5051036;28;20359;-63
2022/04/01 21:51:27;;;;;;;4.73;2.90;;;3.60;99.90;;;;;;5043771;28;20608;-62
2022/04/01 21:53:55;;;;;;;4.37;2.90;;;3.60;99.90;;;;;;5044645;28;20208;-63
2022/04/01 21:56:24;;;;;;;4.50;2.73;;;3.60;99.90;;;;;;5039288;28;20275;-63
2022/04/01 21:58:53;;;;;;;4.77;3.00;;;3.60;99.90;;;;;;5045194;28;20207;-62
2022/04/01 22:01:46;;;;;;;3.03;2.80;;;3.60;99.90;;;;;;5039782;28;20200;-63
2022/04/01 22:04:17;;;;;;;5.40;3.03;;;3.60;99.90;;;;;;5035465;28;20197;-63
2022/04/01 22:06:49;;;;;;;3.83;3.33;;;3.60;99.90;;;;;;5046187;28;20291;-62
2022/04/01 22:09:18;;;;;;;2.77;2.63;;;3.60;99.90;;;;;;5048010;28;20307;-62
2022/04/01 22:11:49;;;;;;;3.13;2.87;;;3.60;99.90;;;;;;5047774;28;20670;-63
2022/04/01 22:14:18;;;;;;;3.10;2.77;;;3.60;99.90;;;;;;5015300;28;20194;-63
2022/04/01 22:16:52;;;;;;;3.90;3.10;;;3.60;99.90;;;;;;5046443;28;20204;-62
2022/04/01 22:19:21;;;;;;;5.30;2.80;;;3.60;99.90;;;;;;5044295;28;20279;-63
2022/04/01 22:21:52;;;;;;;7.90;3.10;;;3.60;99.90;;;;;;5032447;28;20209;-63
2022/04/01 22:24:20;;;;;;;3.53;3.10;;;3.60;99.90;;;;;;5048119;28;20284;-63
2022/04/01 22:26:49;;;;;;;3.00;2.70;;;3.60;99.90;;;;;;5024439;28;20255;-62
2022/04/01 22:29:17;;;;;;;4.23;3.20;;;3.60;99.90;;;;;;5040125;28;20779;-62
2022/04/01 22:31:45;;;;;;;4.83;3.23;;;3.60;99.90;;;;;;5045431;28;20207;-63
2022/04/01 22:34:14;;;;;;;3.30;3.00;;;3.50;99.90;;;;;;5049693;28;20216;-63
2022/04/01 22:36:43;;;;;;;3.57;3.37;;;3.50;99.90;;;;;;5045762;28;20227;-63
2022/04/01 22:39:12;;;;;;;7.70;3.40;;;3.50;99.90;;;;;;5035531;28;20280;-63
2022/04/01 22:41:40;;;;;;;3.03;2.83;;;3.50;99.90;;;;;;5048184;28;20611;-62
2022/04/01 22:44:09;;;;;;;3.30;3.10;;;3.50;99.90;;;;;;5048488;28;20204;-62
2022/04/01 22:46:37;;;;;;;6.50;3.07;;;3.40;99.90;;;;;;5043910;28;20697;-63
2022/04/01 22:49:05;;;;;;;3.30;3.00;;;3.40;99.90;;;;;;5046194;28;20223;-63
2022/04/01 22:54:22;;;;;;;5.83;3.20;;;3.30;99.90;;;;;;5036314;28;20201;-62
2022/04/01 22:56:50;;;;;;;7.20;3.40;;;3.30;99.90;;;;;;5030572;28;20197;-62
2022/04/01 22:59:19;;;;;;;6.63;3.43;;;3.20;99.90;;;;;;5047205;28;20193;-63
2022/04/01 23:01:47;;;;;;;4.93;3.33;;;3.20;99.90;;;;;;5038462;28;20196;-62
2022/04/01 23:04:16;;;;;;;7.90;3.40;;;3.10;99.90;;;;;;5018931;28;20283;-62
2022/04/01 23:06:44;;;;;;;3.13;2.93;;;3.10;99.90;;;;;;5046214;28;20193;-63
2022/04/01 23:09:13;;;;;;;3.27;3.00;;;3.10;99.90;;;;;;5030169;28;20678;-63
2022/04/01 23:11:43;;;;;;;3.87;3.53;;;3.10;99.90;;;;;;5041755;28;20197;-64
2022/04/01 23:14:12;;;;;;;5.00;3.20;;;3.00;99.90;;;;;;5035502;28;20201;-63
2022/04/01 23:16:40;;;;;;;5.03;3.50;;;3.00;99.90;;;;;;5046890;28;20292;-63
2022/04/01 23:19:09;;;;;;;3.53;3.23;;;3.00;99.90;;;;;;5049594;28;20338;-63
2022/04/01 23:21:45;;;;;;;3.63;3.43;;;2.90;99.90;;;;;;5045036;28;20208;-63
2022/04/01 23:24:13;;;;;;;5.67;3.80;;;2.90;99.90;;;;;;5030469;28;20204;-62
2022/04/01 23:26:45;;;;;;;4.57;3.67;;;2.90;99.90;;;;;;5017225;28;20261;-63
2022/04/01 23:29:13;;;;;;;6.57;3.87;;;2.90;99.90;;;;;;5025382;28;20201;-63
2022/04/01 23:31:42;;;;;;;4.07;3.60;;;2.90;99.90;;;;;;5017848;28;20251;-63
2022/04/01 23:34:12;;;;;;;9.13;4.07;;;2.90;99.90;;;;;;5039464;28;20198;-63
2022/04/01 23:36:40;;;;;;;4.37;3.60;;;2.80;99.90;;;;;;5021922;28;20193;-63
2022/04/01 23:39:09;;;;;;;7.77;4.07;;;2.70;99.90;;;;;;5020593;28;20208;-63
2022/04/01 23:41:37;;;;;;;4.20;3.90;;;2.70;99.90;;;;;;5015753;28;20202;-63
2022/04/01 23:44:07;;;;;;;4.10;3.87;;;2.60;99.90;;;;;;5019624;28;20679;-63
2022/04/01 23:46:36;;;;;;;4.33;3.93;;;2.50;99.90;;;;;;5024278;28;20210;-63
2022/04/01 23:49:05;;;;;;;4.97;4.17;;;2.50;99.90;;;;;;5019059;28;20201;-63
2022/04/01 23:51:33;;;;;;;4.10;3.90;;;2.40;99.90;;;;;;5023388;28;20280;-63
2022/04/01 23:54:02;;;;;;;4.70;3.70;;;2.30;99.90;;;;;;5023623;28;20672;-63
2022/04/01 23:56:30;;;;;;;4.13;3.70;;;2.30;99.90;;;;;;5027111;28;20272;-63
2022/04/01 23:58:59;;;;;;;4.57;4.00;;;2.20;99.90;;;;;;5026769;28;20197;-62
